Time;durP1;ratioP1;P1;durP2;ratioP2;P2;SDS_P1;SDS_P2;PMS_P1;PMS_P2;Temp;Humidity;BMP_temperature;BMP_pressure;BME280_temperature;BME280_humidity;BME280_pressure;Samples;Min_cycle;Max_cycle;Signal;HPM_P1;HPM_P2
2021/04/22 00:00:26;;;;;;;22.90;13.90;;;11.10;99.90;;;;;;4970977;28;20385;-72
2021/04/22 00:02:53;;;;;;;20.05;13.20;;;11.10;99.90;;;;;;4970096;28;21042;-72
2021/04/22 00:05:23;;;;;;;21.10;14.00;;;11.10;99.90;;;;;;4971125;28;20471;-72
2021/04/22 00:07:49;;;;;;;21.52;14.10;;;11.20;99.90;;;;;;4968736;28;20921;-71
2021/04/22 00:10:18;;;;;;;20.83;13.60;;;11.20;99.90;;;;;;4971314;28;20428;-72
2021/04/22 00:12:43;;;;;;;21.30;13.13;;;11.20;99.90;;;;;;4970123;28;20388;-71
2021/04/22 00:15:15;;;;;;;20.20;13.60;;;11.10;99.90;;;;;;4969661;28;20470;-72
2021/04/22 00:17:42;;;;;;;25.00;15.77;;;11.20;99.90;;;;;;4968869;28;20487;-70
2021/04/22 00:20:08;;;;;;;22.33;14.02;;;11.30;99.90;;;;;;4970661;28;20389;-71
2021/04/22 00:22:34;;;;;;;25.27;15.10;;;11.20;99.90;;;;;;4970415;28;20377;-69
2021/04/22 00:24:59;;;;;;;22.17;15.18;;;11.20;99.90;;;;;;4970569;28;20396;-71
2021/04/22 00:27:25;;;;;;;22.60;14.70;;;11.30;99.90;;;;;;4970812;28;20473;-71
2021/04/22 00:29:51;;;;;;;22.80;14.88;;;11.20;99.90;;;;;;4970000;28;20507;-71
2021/04/22 00:32:16;;;;;;;22.23;14.50;;;11.20;99.90;;;;;;4970743;28;20400;-69
2021/04/22 00:34:42;;;;;;;23.17;14.53;;;11.00;99.90;;;;;;4969720;28;20408;-71
2021/04/22 00:37:08;;;;;;;22.25;14.02;;;11.00;99.90;;;;;;4969527;28;20445;-71
2021/04/22 00:39:33;;;;;;;22.13;14.60;;;11.00;99.90;;;;;;4970367;28;20389;-70
2021/04/22 00:41:59;;;;;;;22.08;14.07;;;11.10;99.90;;;;;;4968781;28;20403;-71
2021/04/22 00:44:25;;;;;;;22.47;14.40;;;11.10;99.90;;;;;;4970620;28;20381;-71
2021/04/22 00:46:51;;;;;;;20.95;13.80;;;11.10;99.90;;;;;;4969796;28;20388;-71
2021/04/22 00:49:17;;;;;;;24.27;14.70;;;11.20;99.90;;;;;;4969352;28;20458;-71
2021/04/22 00:51:43;;;;;;;21.73;14.40;;;11.20;99.90;;;;;;4969757;28;20407;-71
2021/04/22 00:54:09;;;;;;;22.67;14.50;;;11.30;99.90;;;;;;4969196;28;20753;-71
2021/04/22 00:56:35;;;;;;;23.43;14.40;;;11.30;99.90;;;;;;4969984;28;20423;-70
2021/04/22 00:59:00;;;;;;;25.02;14.40;;;11.30;99.90;;;;;;4969733;28;20450;-71
2021/04/22 01:01:26;;;;;;;21.87;14.20;;;11.10;99.90;;;;;;4970195;28;20734;-71
2021/04/22 01:03:52;;;;;;;24.52;15.65;;;11.20;99.90;;;;;;4969501;28;20584;-71
2021/04/22 01:06:19;;;;;;;21.80;16.00;;;11.30;99.90;;;;;;4970309;28;20400;-71
2021/04/22 01:08:45;;;;;;;25.17;16.83;;;11.30;99.90;;;;;;4968979;28;20419;-71
2021/04/22 01:11:13;;;;;;;22.90;15.90;;;11.20;99.90;;;;;;4968935;28;20392;-71
2021/04/22 01:13:38;;;;;;;26.70;16.33;;;11.30;99.90;;;;;;4968128;28;20424;-70
2021/04/22 01:16:04;;;;;;;27.05;16.48;;;11.40;99.90;;;;;;4970048;28;20807;-71
2021/04/22 01:18:30;;;;;;;21.17;15.32;;;11.40;99.90;;;;;;4970384;28;20399;-71
2021/04/22 01:20:57;;;;;;;25.92;17.48;;;11.50;99.90;;;;;;4967911;28;20950;-71
2021/04/22 01:23:23;;;;;;;24.90;16.07;;;11.60;99.90;;;;;;4970176;28;20473;-72
2021/04/22 01:25:53;;;;;;;25.40;17.17;;;11.60;99.90;;;;;;4968879;28;20878;-71
2021/04/22 01:28:22;;;;;;;23.50;16.47;;;11.70;99.90;;;;;;4969746;28;20393;-71
2021/04/22 01:30:54;;;;;;;25.35;16.80;;;11.70;99.90;;;;;;4967313;28;20392;-71
2021/04/22 01:33:26;;;;;;;24.90;16.38;;;11.70;99.90;;;;;;4970058;28;20391;-71
2021/04/22 01:35:54;;;;;;;25.30;16.10;;;11.50;99.90;;;;;;4968708;28;20562;-72
2021/04/22 01:38:21;;;;;;;24.55;14.82;;;11.30;99.90;;;;;;4969778;28;20413;-72
2021/04/22 01:40:47;;;;;;;23.00;15.50;;;11.20;99.90;;;;;;4969179;28;20424;-72
2021/04/22 01:43:13;;;;;;;25.83;15.40;;;11.10;99.90;;;;;;4969441;28;20392;-72
2021/04/22 01:45:40;;;;;;;24.05;16.13;;;11.20;99.90;;;;;;4968578;28;20384;-71
2021/04/22 01:48:08;;;;;;;26.43;15.93;;;11.20;99.90;;;;;;4969300;28;20853;-72
2021/04/22 01:50:36;;;;;;;26.17;16.92;;;11.20;99.90;;;;;;4969301;28;20465;-72
2021/04/22 01:53:03;;;;;;;24.40;16.95;;;11.20;99.90;;;;;;4968897;28;20479;-71
2021/04/22 01:55:33;;;;;;;26.20;16.33;;;11.20;99.90;;;;;;4969409;28;20412;-70
2021/04/22 01:57:59;;;;;;;22.95;15.95;;;11.10;99.90;;;;;;4968492;28;20403;-71
2021/04/22 02:00:33;;;;;;;25.65;17.02;;;10.90;99.90;;;;;;4967809;28;20405;-71
2021/04/22 02:03:00;;;;;;;21.42;15.63;;;10.90;99.90;;;;;;4967689;28;20397;-71
2021/04/22 02:05:25;;;;;;;23.70;16.30;;;10.90;99.90;;;;;;4968484;28;20427;-71
2021/04/22 02:07:51;;;;;;;25.50;16.20;;;10.80;99.90;;;;;;4968270;28;20456;-71
2021/04/22 02:10:18;;;;;;;23.13;15.48;;;10.80;99.90;;;;;;4967984;28;20384;-70
2021/04/22 02:12:44;;;;;;;23.83;15.38;;;10.80;99.90;;;;;;4968292;28;20388;-71
2021/04/22 02:15:13;;;;;;;24.47;15.57;;;10.70;99.90;;;;;;4969069;28;20782;-71
2021/04/22 02:17:39;;;;;;;23.48;15.35;;;10.80;99.90;;;;;;4967261;28;20392;-69
2021/04/22 02:20:07;;;;;;;23.85;15.35;;;10.70;99.90;;;;;;4969230;28;20384;-71
2021/04/22 02:22:33;;;;;;;24.58;14.43;;;10.60;99.90;;;;;;4969099;28;20430;-72
2021/04/22 02:24:58;;;;;;;22.50;15.70;;;10.50;99.90;;;;;;4968191;28;20584;-71
2021/04/22 02:27:24;;;;;;;23.55;15.73;;;10.50;99.90;;;;;;4969111;28;20475;-71
2021/04/22 02:29:49;;;;;;;26.97;17.47;;;10.60;99.90;;;;;;4968045;28;20392;-71
2021/04/22 02:32:15;;;;;;;27.03;17.20;;;10.50;99.90;;;;;;4968865;28;20399;-71
2021/04/22 02:34:41;;;;;;;24.00;16.15;;;10.50;99.90;;;;;;4967846;28;20754;-70
2021/04/22 02:37:06;;;;;;;25.80;17.10;;;10.50;99.90;;;;;;4967356;28;20706;-71
2021/04/22 02:39:32;;;;;;;25.83;16.50;;;10.50;99.90;;;;;;4968813;28;20389;-71
2021/04/22 02:41:58;;;;;;;24.00;16.00;;;10.50;99.90;;;;;;4968103;28;20389;-71
2021/04/22 02:44:23;;;;;;;24.63;15.88;;;10.50;99.90;;;;;;4968470;28;20450;-71
2021/04/22 02:46:49;;;;;;;24.73;15.20;;;10.40;99.90;;;;;;4967759;28;20408;-71
2021/04/22 02:49:15;;;;;;;23.63;15.33;;;10.30;99.90;;;;;;4968496;28;20812;-71
2021/04/22 02:51:40;;;;;;;24.48;15.60;;;10.20;99.90;;;;;;4968046;28;20471;-70
2021/04/22 02:54:06;;;;;;;26.50;16.53;;;10.10;99.90;;;;;;4968500;28;20454;-70
2021/04/22 02:56:31;;;;;;;23.70;16.25;;;10.10;99.90;;;;;;4967335;28;20412;-71
2021/04/22 02:58:57;;;;;;;24.73;16.73;;;10.00;99.90;;;;;;4967694;28;20462;-71
2021/04/22 03:01:23;;;;;;;26.60;17.30;;;10.00;99.90;;;;;;4968179;28;20384;-70
2021/04/22 03:03:48;;;;;;;25.67;17.00;;;10.00;99.90;;;;;;4966709;28;20450;-70
2021/04/22 03:06:14;;;;;;;28.92;17.10;;;10.10;99.90;;;;;;4968147;28;20717;-70
2021/04/22 03:08:40;;;;;;;24.10;16.48;;;10.10;99.90;;;;;;4966226;28;20431;-69
2021/04/22 03:11:05;;;;;;;25.83;16.60;;;10.20;99.90;;;;;;4968316;28;20409;-71
2021/04/22 03:13:31;;;;;;;26.40;16.63;;;10.30;99.90;;;;;;4968005;28;20405;-72
2021/04/22 03:15:57;;;;;;;26.08;16.00;;;10.30;99.90;;;;;;4966254;28;20440;-70
2021/04/22 03:18:22;;;;;;;25.43;16.87;;;10.30;99.90;;;;;;4968308;28;20392;-70
2021/04/22 03:20:48;;;;;;;21.85;15.10;;;10.20;99.90;;;;;;4967552;28;20384;-71
2021/04/22 03:23:14;;;;;;;24.77;16.60;;;10.20;99.90;;;;;;4967244;28;20388;-72
2021/04/22 03:25:39;;;;;;;29.42;19.23;;;10.20;99.90;;;;;;4967483;28;20404;-67
2021/04/22 03:28:05;;;;;;;29.10;18.80;;;10.20;99.90;;;;;;4967687;28;20393;-69
2021/04/22 03:30:33;;;;;;;25.75;17.65;;;10.30;99.90;;;;;;4968359;28;20403;-70
2021/04/22 03:32:58;;;;;;;30.27;18.17;;;10.20;99.90;;;;;;4967266;28;20396;-70
2021/04/22 03:35:25;;;;;;;27.90;18.00;;;10.30;99.90;;;;;;4967986;28;20424;-70
2021/04/22 03:37:51;;;;;;;30.38;19.48;;;10.30;99.90;;;;;;4967101;28;20481;-70
2021/04/22 03:40:18;;;;;;;28.85;19.27;;;10.30;99.90;;;;;;4967859;28;20435;-71
2021/04/22 03:42:44;;;;;;;26.70;17.42;;;10.20;99.90;;;;;;4967019;28;20465;-70
2021/04/22 03:45:12;;;;;;;28.48;18.52;;;10.30;99.90;;;;;;4968061;28;20472;-71
2021/04/22 03:47:38;;;;;;;28.10;18.20;;;10.10;99.90;;;;;;4967618;28;20450;-68
2021/04/22 03:50:09;;;;;;;31.85;20.83;;;10.10;99.90;;;;;;4967372;28;20763;-70
2021/04/22 03:52:35;;;;;;;29.98;20.42;;;10.10;99.90;;;;;;4967731;28;20392;-69
2021/04/22 03:55:01;;;;;;;27.63;18.85;;;9.90;99.90;;;;;;4967136;28;20553;-70
2021/04/22 03:57:27;;;;;;;30.55;20.35;;;9.90;99.90;;;;;;4967641;28;20493;-70
2021/04/22 03:59:53;;;;;;;29.93;19.60;;;9.90;99.90;;;;;;4965729;28;20876;-69
2021/04/22 04:02:19;;;;;;;27.35;17.50;;;9.90;99.90;;;;;;4966706;28;20861;-70
2021/04/22 04:04:45;;;;;;;26.70;18.00;;;9.90;99.90;;;;;;4966977;28;20399;-69
2021/04/22 04:07:11;;;;;;;27.33;19.05;;;9.70;99.90;;;;;;4967435;28;20890;-69
2021/04/22 04:09:37;;;;;;;28.80;19.90;;;9.60;99.90;;;;;;4967756;28;20404;-70
2021/04/22 04:12:04;;;;;;;29.88;19.02;;;9.40;99.90;;;;;;4967093;28;20768;-70
2021/04/22 04:14:30;;;;;;;30.65;19.48;;;9.30;99.90;;;;;;4966248;28;20476;-65
2021/04/22 04:16:55;;;;;;;31.92;19.17;;;9.20;99.90;;;;;;4970142;28;20973;-65
2021/04/22 04:19:21;;;;;;;33.37;20.20;;;9.10;99.90;;;;;;4970829;28;20395;-65
2021/04/22 04:21:47;;;;;;;33.50;20.60;;;8.90;99.90;;;;;;4970204;28;20780;-61
2021/04/22 04:24:12;;;;;;;32.13;19.80;;;8.80;99.90;;;;;;4970991;28;20391;-64
2021/04/22 04:26:38;;;;;;;31.70;20.30;;;8.70;99.90;;;;;;4970449;28;20900;-64
2021/04/22 04:29:04;;;;;;;32.37;20.40;;;8.60;99.90;;;;;;4970107;28;20389;-65
2021/04/22 04:31:30;;;;;;;34.92;20.80;;;8.50;99.90;;;;;;4970241;28;20381;-59
2021/04/22 04:33:56;;;;;;;31.48;20.33;;;8.50;99.90;;;;;;4969958;28;20399;-62
2021/04/22 04:36:22;;;;;;;34.25;21.08;;;8.50;99.90;;;;;;4970541;28;20412;-60
2021/04/22 04:38:48;;;;;;;31.20;19.58;;;8.50;99.90;;;;;;4970126;28;20495;-61
2021/04/22 04:41:13;;;;;;;31.50;19.53;;;8.40;99.90;;;;;;4970401;28;20483;-64
2021/04/22 04:43:39;;;;;;;34.10;20.85;;;8.40;99.90;;;;;;4970614;28;20892;-72
2021/04/22 04:46:05;;;;;;;35.45;19.98;;;8.40;99.90;;;;;;4969215;28;20388;-61
2021/04/22 04:48:30;;;;;;;35.53;19.83;;;8.40;99.90;;;;;;4970888;28;20784;-64
2021/04/22 04:50:56;;;;;;;32.45;19.92;;;8.60;99.90;;;;;;4969883;28;20398;-61
2021/04/22 04:53:22;;;;;;;33.60;19.87;;;8.60;99.90;;;;;;4969224;28;20393;-66
2021/04/22 04:55:47;;;;;;;32.20;19.23;;;8.70;99.90;;;;;;5053121;28;20982;-68
2021/04/22 04:58:13;;;;;;;30.20;18.83;;;8.60;99.90;;;;;;4970418;28;20496;-64
2021/04/22 05:00:39;;;;;;;30.45;18.48;;;8.70;99.90;;;;;;4970389;28;20529;-65
2021/04/22 05:03:05;;;;;;;31.20;18.47;;;8.90;99.90;;;;;;4969746;28;20433;-61
2021/04/22 05:05:30;;;;;;;34.45;20.00;;;8.90;99.90;;;;;;4966408;28;21791;-64
2021/04/22 05:07:56;;;;;;;27.93;17.93;;;9.00;99.90;;;;;;4969322;28;20424;-64
2021/04/22 05:10:22;;;;;;;35.03;20.08;;;9.10;99.90;;;;;;4969964;28;20473;-64
2021/04/22 05:12:47;;;;;;;30.85;19.48;;;9.30;99.90;;;;;;4969198;28;20916;-69
2021/04/22 05:15:13;;;;;;;33.90;18.77;;;9.50;99.90;;;;;;4970097;28;20458;-71
2021/04/22 05:17:39;;;;;;;32.95;18.23;;;9.70;99.90;;;;;;4969572;28;20757;-66
2021/04/22 05:20:06;;;;;;;30.27;18.80;;;9.60;99.90;;;;;;4969220;28;20388;-70
2021/04/22 05:22:32;;;;;;;28.70;17.60;;;9.60;99.90;;;;;;4969625;28;20514;-70
2021/04/22 05:24:58;;;;;;;27.10;17.27;;;9.60;99.90;;;;;;4968969;28;20385;-70
2021/04/22 05:27:23;;;;;;;35.55;18.75;;;10.00;99.90;;;;;;4970060;28;20438;-71
2021/04/22 05:29:49;;;;;;;30.00;18.63;;;10.20;99.90;;;;;;4969032;28;20395;-70
2021/04/22 05:32:15;;;;;;;28.55;18.60;;;10.40;99.90;;;;;;4968648;28;20469;-69
2021/04/22 05:34:41;;;;;;;25.98;17.42;;;10.60;99.90;;;;;;4969098;28;20384;-66
2021/04/22 05:37:07;;;;;;;27.50;17.57;;;11.10;99.90;;;;;;4969710;28;20393;-69
2021/04/22 05:39:33;;;;;;;34.55;17.60;;;11.60;99.90;;;;;;4969695;28;20727;-69
2021/04/22 05:41:58;;;;;;;25.55;16.92;;;12.00;99.90;;;;;;4968815;28;20952;-71
2021/04/22 05:44:25;;;;;;;24.95;16.48;;;12.30;99.90;;;;;;4969837;28;20463;-68
2021/04/22 05:46:51;;;;;;;28.98;17.50;;;12.50;99.90;;;;;;4968684;28;20392;-68
2021/04/22 05:49:17;;;;;;;26.33;17.00;;;12.50;99.90;;;;;;4969896;28;20392;-69
2021/04/22 05:51:42;;;;;;;28.40;17.20;;;12.60;99.90;;;;;;4968839;28;20393;-68
2021/04/22 05:54:09;;;;;;;27.73;18.07;;;12.70;99.90;;;;;;4957991;28;20434;-68
2021/04/22 05:56:35;;;;;;;25.25;17.30;;;12.60;99.90;;;;;;4961800;28;20412;-69
2021/04/22 05:59:01;;;;;;;31.87;17.63;;;12.30;99.90;;;;;;4953716;28;21012;-70
2021/04/22 06:01:26;;;;;;;27.70;18.30;;;12.30;99.90;;;;;;4949983;28;20387;-67
2021/04/22 06:03:52;;;;;;;27.10;17.47;;;12.20;99.90;;;;;;4967734;28;20392;-69
2021/04/22 06:06:18;;;;;;;29.15;18.45;;;12.40;99.90;;;;;;4969681;28;20865;-69
2021/04/22 06:08:45;;;;;;;25.53;16.37;;;12.60;99.90;;;;;;4967244;28;20416;-67
2021/04/22 06:11:11;;;;;;;27.75;15.82;;;12.40;99.90;;;;;;4959313;28;20458;-68
2021/04/22 06:13:36;;;;;;;22.38;14.77;;;12.20;99.90;;;;;;4949364;28;20382;-68
2021/04/22 06:16:02;;;;;;;26.27;15.97;;;12.00;99.90;;;;;;4948208;29;20414;-69
2021/04/22 06:18:28;;;;;;;22.10;15.10;;;12.10;99.90;;;;;;4949298;29;20428;-68
2021/04/22 06:20:54;;;;;;;24.80;14.82;;;12.30;99.90;;;;;;4948628;29;20705;-68
2021/04/22 06:23:19;;;;;;;21.58;14.35;;;12.30;99.90;;;;;;4949436;28;20386;-71
2021/04/22 06:25:45;;;;;;;24.10;15.37;;;12.30;99.90;;;;;;4947869;29;20390;-70
2021/04/22 06:28:11;;;;;;;23.88;14.25;;;12.60;99.90;;;;;;4957788;28;20397;-70
2021/04/22 06:30:36;;;;;;;28.88;14.10;;;12.70;99.90;;;;;;4968949;28;20380;-70
2021/04/22 06:33:03;;;;;;;25.48;14.00;;;12.60;99.90;;;;;;4966547;28;20408;-69
2021/04/22 06:35:30;;;;;;;23.83;13.10;;;13.10;99.90;;;;;;4967737;28;20487;-71
2021/04/22 06:37:56;;;;;;;22.03;13.90;;;12.50;99.90;;;;;;4968129;28;20453;-70
2021/04/22 06:40:23;;;;;;;23.90;13.50;;;12.20;99.90;;;;;;4968720;28;20396;-71
2021/04/22 06:42:49;;;;;;;23.05;13.88;;;12.20;99.90;;;;;;4967636;28;20393;-71
2021/04/22 06:45:16;;;;;;;22.02;12.98;;;11.80;99.90;;;;;;4968279;28;20734;-70
2021/04/22 06:47:42;;;;;;;22.13;13.48;;;11.80;99.90;;;;;;4967367;28;20924;-66
2021/04/22 06:50:11;;;;;;;22.85;13.18;;;11.90;99.90;;;;;;4967566;28;20389;-68
2021/04/22 06:52:38;;;;;;;21.88;14.05;;;11.60;99.90;;;;;;5051950;28;20393;-69
2021/04/22 06:55:06;;;;;;;25.70;13.50;;;11.30;99.90;;;;;;4967039;28;20415;-70
2021/04/22 06:57:32;;;;;;;23.20;13.73;;;11.30;99.90;;;;;;4968151;28;20749;-71
2021/04/22 06:59:57;;;;;;;22.67;12.27;;;11.60;99.90;;;;;;4966126;28;20399;-71
2021/04/22 07:02:23;;;;;;;23.75;12.65;;;11.60;99.90;;;;;;4959565;28;20766;-71
2021/04/22 07:04:48;;;;;;;23.87;11.43;;;11.70;99.90;;;;;;5036303;28;20851;-71
2021/04/22 07:07:14;;;;;;;21.40;11.23;;;11.60;99.90;;;;;;4952355;28;20418;-71
2021/04/22 07:09:40;;;;;;;21.87;11.50;;;12.30;99.90;;;;;;4949644;28;20398;-70
2021/04/22 07:12:06;;;;;;;18.63;11.00;;;13.70;99.90;;;;;;4963678;28;20402;-70
2021/04/22 07:14:32;;;;;;;19.43;10.70;;;14.20;99.90;;;;;;4967942;28;20467;-69
2021/04/22 07:17:00;;;;;;;19.38;10.25;;;14.30;99.90;;;;;;4967181;28;20960;-68
2021/04/22 07:19:26;;;;;;;18.83;10.70;;;14.60;99.90;;;;;;4956671;28;20489;-70
2021/04/22 07:21:52;;;;;;;19.42;9.77;;;14.90;99.90;;;;;;4947751;29;20386;-69
2021/04/22 07:24:18;;;;;;;19.65;10.00;;;15.00;99.90;;;;;;4948618;28;20440;-70
2021/04/22 07:26:44;;;;;;;16.87;10.20;;;14.70;99.90;;;;;;4947671;29;20856;-69
2021/04/22 07:29:10;;;;;;;16.00;9.67;;;15.90;99.40;;;;;;4948197;29;20736;-70
2021/04/22 07:31:35;;;;;;;18.75;10.10;;;16.80;96.40;;;;;;4948699;28;20390;-69
2021/04/22 07:34:01;;;;;;;17.10;10.10;;;16.80;95.80;;;;;;4946328;29;20591;-70
2021/04/22 07:36:27;;;;;;;17.75;9.70;;;16.70;93.80;;;;;;4948340;29;20449;-70
2021/04/22 07:38:52;;;;;;;16.20;9.40;;;15.60;96.20;;;;;;4947973;28;20763;-70
2021/04/22 07:41:18;;;;;;;18.93;10.30;;;15.70;95.60;;;;;;4948458;28;20461;-71
2021/04/22 07:43:44;;;;;;;17.42;9.40;;;15.70;95.40;;;;;;4950325;28;20388;-66
2021/04/22 07:46:10;;;;;;;18.58;8.88;;;15.60;96.00;;;;;;4958279;28;20384;-72
2021/04/22 07:48:36;;;;;;;19.30;9.70;;;16.00;95.00;;;;;;4960664;28;20746;-69
2021/04/22 07:51:02;;;;;;;20.40;9.30;;;16.30;94.70;;;;;;4950831;28;20957;-69
2021/04/22 07:53:28;;;;;;;16.35;9.07;;;17.60;91.70;;;;;;4951686;28;20382;-67
2021/04/22 07:55:53;;;;;;;17.63;9.67;;;18.10;87.80;;;;;;4959528;28;20822;-69
2021/04/22 07:58:19;;;;;;;18.40;10.68;;;17.80;88.00;;;;;;4952587;28;20405;-70
2021/04/22 08:00:47;;;;;;;17.60;9.10;;;17.80;85.70;;;;;;4960639;28;20952;-67
2021/04/22 08:03:13;;;;;;;16.80;9.05;;;16.90;88.50;;;;;;4960765;28;20456;-71
2021/04/22 08:05:40;;;;;;;17.33;9.07;;;15.90;90.70;;;;;;4959777;28;20439;-71
2021/04/22 08:08:08;;;;;;;15.20;8.77;;;16.10;90.50;;;;;;4974039;28;20515;-71
2021/04/22 08:10:40;;;;;;;18.35;10.00;;;16.40;90.20;;;;;;4974144;28;20492;-74
2021/04/22 08:13:07;;;;;;;16.77;9.38;;;16.80;88.70;;;;;;4954654;28;20458;-75
2021/04/22 08:15:34;;;;;;;15.80;8.90;;;17.20;87.60;;;;;;4967972;28;20497;-71
2021/04/22 08:18:01;;;;;;;18.60;9.20;;;17.60;84.50;;;;;;4966904;28;20911;-72
2021/04/22 08:20:27;;;;;;;15.60;8.77;;;18.70;82.60;;;;;;4962123;28;20462;-70
2021/04/22 08:22:56;;;;;;;14.73;8.88;;;19.00;78.50;;;;;;4961752;28;20435;-72
2021/04/22 08:25:28;;;;;;;16.42;8.82;;;19.50;74.60;;;;;;4965969;28;20393;-72
2021/04/22 08:27:55;;;;;;;12.90;7.27;;;19.60;75.20;;;;;;4956200;28;20398;-74
2021/04/22 08:30:24;;;;;;;15.73;8.60;;;20.90;69.20;;;;;;4957320;28;20393;-71
2021/04/22 08:32:50;;;;;;;16.42;8.52;;;21.00;64.60;;;;;;4963066;28;20404;-66
2021/04/22 08:35:16;;;;;;;15.47;8.80;;;20.80;63.40;;;;;;4963944;28;20768;-74
2021/04/22 08:37:42;;;;;;;13.60;7.70;;;20.60;63.50;;;;;;4965977;28;20406;-71
2021/04/22 08:40:11;;;;;;;12.77;7.78;;;20.40;63.00;;;;;;4961735;28;20479;-70
2021/04/22 08:42:37;;;;;;;15.60;7.80;;;20.30;63.30;;;;;;4958953;28;20410;-73
2021/04/22 08:45:05;;;;;;;14.18;7.20;;;21.00;60.20;;;;;;4963708;28;20487;-80
2021/04/22 08:47:32;;;;;;;15.07;7.90;;;20.10;60.90;;;;;;4965031;28;20400;-77
2021/04/22 08:49:58;;;;;;;12.60;7.80;;;18.80;61.20;;;;;;4965367;28;20878;-77
2021/04/22 08:52:24;;;;;;;13.93;7.20;;;18.40;64.40;;;;;;4962112;28;20490;-79
2021/04/22 08:54:51;;;;;;;13.15;6.90;;;18.80;65.10;;;;;;4963046;28;20850;-77
2021/04/22 08:57:19;;;;;;;12.88;6.75;;;19.60;60.20;;;;;;4962787;28;20899;-80
2021/04/22 08:59:46;;;;;;;11.82;6.80;;;19.30;59.00;;;;;;4960156;28;20399;-69
2021/04/22 09:02:12;;;;;;;15.13;7.27;;;19.30;58.80;;;;;;4959193;28;20393;-72
2021/04/22 09:04:38;;;;;;;15.68;6.88;;;19.10;58.80;;;;;;4964164;28;20402;-76
2021/04/22 09:07:03;;;;;;;13.55;6.35;;;19.00;59.70;;;;;;4964433;28;20427;-76
2021/04/22 09:09:29;;;;;;;12.93;5.53;;;19.30;59.40;;;;;;4965649;28;20427;-79
2021/04/22 09:11:55;;;;;;;13.73;6.17;;;19.20;57.70;;;;;;4963823;28;20399;-70
2021/04/22 09:14:23;;;;;;;12.20;5.90;;;18.40;56.60;;;;;;4960962;28;20405;-70
2021/04/22 09:16:49;;;;;;;9.95;5.30;;;19.10;54.10;;;;;;4962662;28;20467;-70
2021/04/22 09:19:23;;;;;;;13.60;6.10;;;19.40;52.50;;;;;;4960301;28;20406;-73
2021/04/22 09:21:55;;;;;;;12.27;5.90;;;20.20;52.80;;;;;;4958434;28;20393;-71
2021/04/22 09:24:23;;;;;;;9.27;5.28;;;20.70;50.80;;;;;;4958384;28;20455;-75
2021/04/22 09:26:54;;;;;;;9.95;4.93;;;21.10;48.80;;;;;;4958991;28;20401;-67
2021/04/22 09:29:46;;;;;;;10.35;5.05;;;21.00;46.40;;;;;;4959281;28;20437;-71
2021/04/22 09:32:14;;;;;;;10.98;4.60;;;20.70;47.70;;;;;;4968033;28;20507;-73
2021/04/22 09:34:48;;;;;;;11.17;5.40;;;20.70;47.00;;;;;;4965079;28;20411;-72
2021/04/22 09:37:15;;;;;;;10.20;5.20;;;20.50;46.20;;;;;;4964222;28;20527;-74
2021/04/22 09:39:41;;;;;;;12.32;5.00;;;20.20;46.50;;;;;;4964807;28;20485;-69
2021/04/22 09:42:11;;;;;;;8.63;4.70;;;20.70;46.20;;;;;;4962034;28;20409;-75
2021/04/22 09:44:38;;;;;;;9.73;4.50;;;20.50;46.60;;;;;;4964997;28;20380;-72
2021/04/22 09:47:11;;;;;;;9.30;4.43;;;19.40;45.60;;;;;;4961466;28;20909;-71
2021/04/22 09:49:56;;;;;;;15.70;5.65;;;19.50;46.10;;;;;;4958977;28;20397;-71
2021/04/22 09:52:22;;;;;;;8.60;4.33;;;20.60;46.50;;;;;;4964012;28;20402;-69
2021/04/22 09:54:51;;;;;;;10.00;4.53;;;20.80;46.00;;;;;;4963458;28;20399;-70
2021/04/22 09:57:23;;;;;;;9.83;5.40;;;20.20;45.40;;;;;;4958535;28;20422;-71
2021/04/22 09:59:49;;;;;;;11.45;4.82;;;20.20;46.90;;;;;;4964531;28;20786;-69
2021/04/22 10:02:15;;;;;;;9.07;5.00;;;21.00;46.80;;;;;;4961295;28;20513;-72
2021/04/22 10:04:43;;;;;;;9.88;5.10;;;21.20;44.80;;;;;;4961879;28;20796;-69
2021/04/22 10:07:26;;;;;;;8.57;4.40;;;20.30;44.80;;;;;;4962424;28;20477;-73
2021/04/22 10:09:53;;;;;;;10.30;4.60;;;21.40;43.30;;;;;;4964761;28;20408;-74
2021/04/22 10:12:37;;;;;;;10.57;4.45;;;21.50;43.30;;;;;;4958002;28;21219;-75
2021/04/22 10:15:22;;;;;;;8.68;4.18;;;21.80;41.60;;;;;;4958749;28;20418;-74
2021/04/22 10:17:53;;;;;;;8.80;4.05;;;21.60;41.70;;;;;;4964996;28;20389;-68
2021/04/22 10:20:20;;;;;;;9.70;4.70;;;21.20;40.90;;;;;;4960546;28;20396;-72
2021/04/22 10:22:49;;;;;;;10.80;4.30;;;21.20;41.80;;;;;;4962473;28;20400;-66
2021/04/22 10:25:18;;;;;;;11.80;5.18;;;21.10;42.80;;;;;;4962818;28;20396;-73
2021/04/22 10:27:44;;;;;;;8.88;3.72;;;20.80;42.30;;;;;;4968308;28;20396;-69
2021/04/22 10:30:19;;;;;;;9.20;4.80;;;21.30;40.90;;;;;;4965558;28;20399;-72
2021/04/22 10:32:45;;;;;;;8.98;4.60;;;21.80;40.00;;;;;;4964123;28;20416;-68
2021/04/22 10:35:14;;;;;;;7.60;3.80;;;22.00;39.60;;;;;;4961354;28;20417;-68
2021/04/22 10:37:42;;;;;;;10.70;3.90;;;20.90;38.20;;;;;;4968211;28;20420;-73
2021/04/22 10:40:10;;;;;;;9.20;3.60;;;20.80;39.50;;;;;;4954988;28;20500;-73
2021/04/22 10:42:37;;;;;;;9.98;3.90;;;19.50;39.90;;;;;;4964647;28;20497;-74
2021/04/22 10:45:06;;;;;;;8.70;3.90;;;19.10;40.90;;;;;;4948024;28;20390;-73
2021/04/22 10:47:31;;;;;;;9.50;3.70;;;19.10;41.10;;;;;;4949429;28;20436;-74
2021/04/22 10:49:57;;;;;;;10.32;4.05;;;19.20;41.60;;;;;;4948512;28;20414;-74
2021/04/22 10:52:23;;;;;;;9.77;3.30;;;18.60;42.40;;;;;;4960646;28;20923;-74
2021/04/22 10:54:52;;;;;;;10.30;4.53;;;18.30;41.20;;;;;;4962122;28;20405;-68
2021/04/22 10:57:21;;;;;;;9.75;3.80;;;18.40;40.70;;;;;;4959609;28;20427;-74
2021/04/22 10:59:59;;;;;;;9.27;3.65;;;18.10;40.00;;;;;;4957040;28;20404;-68
2021/04/22 11:02:24;;;;;;;8.25;3.22;;;17.90;39.40;;;;;;4960667;28;20395;-72
2021/04/22 11:04:51;;;;;;;10.13;3.45;;;17.90;37.90;;;;;;4963135;28;20388;-71
2021/04/22 11:07:21;;;;;;;7.47;3.10;;;17.90;38.00;;;;;;4957610;28;20578;-71
2021/04/22 11:09:50;;;;;;;6.13;2.65;;;18.20;37.40;;;;;;4958838;28;20420;-66
2021/04/22 11:12:27;;;;;;;7.07;2.58;;;18.30;35.70;;;;;;4960454;28;20446;-74
2021/04/22 11:14:54;;;;;;;6.18;2.50;;;18.10;33.50;;;;;;4959007;28;20432;-74
2021/04/22 11:17:38;;;;;;;8.20;2.50;;;18.30;33.90;;;;;;4961131;28;20389;-74
2021/04/22 11:20:20;;;;;;;9.05;3.20;;;18.40;33.60;;;;;;4962776;28;20419;-73
2021/04/22 11:22:47;;;;;;;7.00;3.00;;;18.10;33.80;;;;;;4962188;28;20800;-68
2021/04/22 11:25:21;;;;;;;9.80;3.05;;;17.80;36.80;;;;;;4967003;28;20392;-72
2021/04/22 11:27:53;;;;;;;9.20;3.60;;;18.10;38.00;;;;;;4969914;28;20396;-69
2021/04/22 11:30:32;;;;;;;7.40;3.00;;;18.30;38.30;;;;;;4966571;28;20433;-69
2021/04/22 11:33:00;;;;;;;8.45;3.58;;;18.20;37.70;;;;;;4960650;28;20473;-74
2021/04/22 11:35:27;;;;;;;7.17;3.30;;;18.30;38.50;;;;;;4965245;28;20484;-73
2021/04/22 11:38:10;;;;;;;8.35;3.40;;;18.00;38.70;;;;;;4967459;28;20413;-71
2021/04/22 11:40:41;;;;;;;8.13;3.40;;;18.10;38.30;;;;;;4978842;28;20826;-56
2021/04/22 11:43:22;;;;;;;6.18;2.90;;;18.10;38.40;;;;;;4957072;28;20421;-63
2021/04/22 11:45:53;;;;;;;10.60;3.40;;;17.90;39.20;;;;;;4964502;28;20494;-59
2021/04/22 11:48:20;;;;;;;8.40;3.47;;;17.70;40.50;;;;;;4964164;28;20398;-59
2021/04/22 11:50:55;;;;;;;7.72;3.50;;;17.40;40.60;;;;;;4964396;28;20485;-59
2021/04/22 11:53:38;;;;;;;8.55;3.70;;;17.80;41.10;;;;;;4960855;28;20393;-59
2021/04/22 11:56:06;;;;;;;9.85;3.80;;;17.70;40.50;;;;;;4970294;28;20419;-60
2021/04/22 11:58:34;;;;;;;9.48;3.40;;;17.30;40.30;;;;;;4967654;28;20422;-61
2021/04/22 12:01:05;;;;;;;11.68;3.90;;;17.40;40.90;;;;;;4961984;28;20716;-58
2021/04/22 12:03:33;;;;;;;8.80;3.95;;;17.60;41.50;;;;;;4961814;28;20402;-61
2021/04/22 12:06:02;;;;;;;9.67;3.77;;;18.00;41.50;;;;;;4961120;28;20485;-60
2021/04/22 12:08:32;;;;;;;8.90;3.83;;;17.80;41.10;;;;;;4963809;28;20435;-60
2021/04/22 12:11:01;;;;;;;8.80;3.80;;;17.30;41.20;;;;;;4970122;28;20474;-60
2021/04/22 12:13:27;;;;;;;9.70;3.42;;;17.50;41.70;;;;;;4963288;28;20405;-60
2021/04/22 12:15:55;;;;;;;10.65;3.80;;;17.50;41.50;;;;;;4954782;28;20922;-59
2021/04/22 12:18:33;;;;;;;9.10;3.50;;;17.40;41.50;;;;;;4962865;28;20401;-59
2021/04/22 12:21:23;;;;;;;10.70;4.50;;;17.50;42.00;;;;;;4960207;28;20857;-59
2021/04/22 12:23:59;;;;;;;10.27;3.70;;;17.60;42.10;;;;;;4990181;28;20377;-59
2021/04/22 12:26:30;;;;;;;6.60;3.60;;;17.50;41.80;;;;;;4977680;28;20867;-59
2021/04/22 12:28:58;;;;;;;10.25;3.97;;;17.70;41.70;;;;;;4986345;28;20398;-60
2021/04/22 12:31:28;;;;;;;10.93;3.38;;;17.70;42.40;;;;;;4971286;28;20399;-59
2021/04/22 12:33:55;;;;;;;8.77;3.88;;;18.10;41.60;;;;;;4966984;28;20435;-59